createdAt,value
2023-01-19T00:02:04.832Z,92.06
2023-01-19T00:07:04.771Z,91.49
2023-01-19T00:12:04.768Z,91.28
2023-01-19T00:17:04.738Z,91.07
2023-01-19T00:22:04.711Z,90.92
2023-01-19T00:27:04.961Z,90.61
2023-01-19T00:32:04.671Z,90.29
2023-01-19T00:37:04.676Z,90.29
2023-01-19T00:42:04.658Z,89.76
2023-01-19T00:47:04.633Z,89.09
2023-01-19T00:52:04.620Z,88.78
2023-01-19T00:57:04.601Z,87.48
2023-01-19T01:02:04.741Z,87.02
2023-01-19T01:07:04.550Z,87.58
2023-01-19T01:12:04.512Z,87.16
2023-01-19T01:17:04.448Z,87.27
2023-01-19T01:22:04.440Z,87.16
2023-01-19T01:27:04.424Z,87.27
2023-01-19T01:32:04.408Z,87.68
2023-01-19T01:37:04.397Z,88.25
2023-01-19T01:42:04.387Z,88.78
2023-01-19T01:47:04.336Z,88.46
2023-01-19T01:52:04.325Z,88.92
2023-01-19T01:57:04.276Z,89.03
2023-01-19T02:02:04.297Z,89.24
2023-01-19T02:07:04.211Z,89.34
2023-01-19T02:12:04.210Z,89.49
2023-01-19T02:17:04.156Z,89.59
2023-01-19T02:22:04.160Z,89.81
2023-01-19T02:27:04.134Z,90.33
2023-01-19T02:32:04.151Z,89.91
2023-01-19T02:37:04.092Z,89.91
2023-01-19T02:42:04.044Z,89.59
2023-01-19T02:47:04.007Z,89.17
2023-01-19T02:52:03.996Z,89.17
2023-01-19T02:57:03.948Z,89.07
2023-01-19T03:02:03.949Z,89.49
2023-01-19T03:07:03.882Z,89.64
2023-01-19T03:12:03.887Z,89.95
2023-01-19T03:17:03.870Z,89.95
2023-01-19T03:22:03.884Z,90.06
2023-01-19T03:27:03.822Z,90.26
2023-01-19T03:32:03.827Z,89.84
2023-01-19T03:37:03.781Z,90.06
2023-01-19T03:42:03.766Z,89.91
2023-01-19T03:47:03.758Z,89.39
2023-01-19T03:52:03.751Z,89.84
2023-01-19T03:57:03.761Z,90.48
2023-01-19T04:02:03.812Z,90.16
2023-01-19T04:07:03.682Z,90.26
2023-01-19T04:12:03.695Z,90.23
2023-01-19T04:17:03.667Z,89.24
2023-01-19T04:22:03.658Z,89.87
2023-01-19T04:27:03.598Z,89.03
2023-01-19T04:32:03.590Z,88.82
2023-01-19T04:37:03.601Z,88.71
2023-01-19T04:42:03.587Z,89.14
2023-01-19T04:47:03.574Z,88.60
2023-01-19T04:52:03.541Z,88.29
2023-01-19T04:57:03.499Z,88.15
2023-01-19T05:02:03.540Z,88.04
2023-01-19T05:07:03.461Z,87.83
2023-01-19T05:12:03.451Z,87.73
2023-01-19T05:17:03.445Z,87.52
2023-01-19T05:22:03.428Z,86.11
2023-01-19T05:27:03.373Z,86.53
2023-01-19T05:32:03.395Z,86.11
2023-01-19T05:37:03.329Z,86.21
2023-01-19T05:42:03.292Z,86.11
2023-01-19T05:47:03.250Z,86.11
2023-01-19T05:52:03.228Z,86.00
2023-01-19T05:57:03.193Z,86.43
2023-01-19T06:02:03.218Z,85.83
2023-01-19T06:07:03.125Z,86.36
2023-01-19T06:12:03.127Z,86.46
2023-01-19T06:17:03.102Z,86.04
2023-01-19T06:22:03.107Z,86.25
2023-01-19T06:27:03.073Z,85.73
2023-01-19T06:32:03.134Z,85.52
2023-01-19T06:37:03.032Z,85.27
2023-01-19T06:42:03.023Z,85.20
2023-01-19T06:47:15.616Z,85.10
2023-01-19T06:52:02.972Z,84.99
2023-01-19T06:57:03.562Z,84.47
2023-01-19T07:02:26.728Z,84.47
2023-01-19T07:07:02.871Z,84.57
2023-01-19T07:12:02.811Z,84.36
2023-01-19T07:17:02.859Z,84.25
2023-01-19T07:22:02.807Z,84.15
2023-01-19T07:27:02.772Z,84.15
2023-01-19T07:32:02.725Z,84.36
2023-01-19T07:37:02.872Z,84.25
2023-01-19T07:42:02.708Z,83.90
2023-01-19T07:47:02.687Z,83.80
2023-01-19T07:52:02.636Z,84.01
2023-01-19T07:57:02.627Z,83.90
2023-01-19T08:02:02.733Z,83.27
2023-01-19T08:07:02.570Z,84.11
2023-01-19T08:12:02.581Z,83.54
2023-01-19T08:17:02.523Z,84.08
2023-01-19T08:22:02.669Z,83.54
2023-01-19T08:27:02.594Z,83.76
2023-01-19T08:32:02.613Z,83.93
2023-01-19T08:37:02.457Z,83.37
2023-01-19T08:42:02.676Z,83.26
2023-01-19T08:47:02.660Z,83.01
2023-01-19T08:52:02.385Z,83.22
2023-01-19T08:57:02.392Z,83.01
2023-01-19T09:02:02.560Z,82.56
2023-01-19T09:07:02.467Z,83.08
2023-01-19T09:12:02.288Z,82.83
2023-01-19T09:17:02.337Z,82.62
2023-01-19T09:22:02.357Z,81.99
2023-01-19T09:27:02.169Z,82.38
2023-01-19T09:32:02.216Z,81.75
2023-01-19T09:37:04.616Z,81.12
2023-01-19T09:43:15.784Z,81.50
2023-01-19T09:47:02.582Z,81.40
2023-01-19T09:52:10.428Z,81.71
2023-01-19T09:57:02.203Z,81.19
2023-01-19T10:02:02.025Z,80.83
2023-01-19T10:07:02.053Z,81.04
2023-01-19T10:12:01.928Z,80.83
2023-01-19T10:17:04.579Z,80.69
2023-01-19T10:22:03.649Z,80.17
2023-01-19T10:28:06.475Z,79.82
2023-01-19T10:32:02.540Z,79.61
2023-01-19T10:37:03.680Z,78.99
2023-01-19T10:42:03.730Z,79.47
2023-01-19T10:47:05.234Z,78.81
2023-01-19T10:52:03.729Z,79.33
2023-01-19T10:57:03.729Z,78.49
2023-01-19T11:02:02.405Z,78.35
2023-01-19T11:07:20.985Z,77.51
2023-01-19T11:12:01.658Z,76.75
2023-01-19T11:17:01.720Z,76.65
2023-01-19T11:22:01.572Z,76.65
2023-01-19T11:27:01.566Z,75.98
2023-01-19T11:32:02.259Z,76.51
2023-01-19T11:37:01.456Z,75.98
2023-01-19T11:42:01.408Z,75.32
2023-01-19T11:47:01.528Z,75.32
2023-01-19T11:52:03.177Z,74.35
2023-01-19T11:58:05.371Z,74.77
2023-01-19T12:02:04.094Z,74.46
2023-01-19T12:07:01.247Z,73.83
2023-01-19T16:46:55.655Z,82.07
2023-01-19T16:51:56.635Z,82.18
2023-01-19T16:56:56.595Z,82.60
2023-01-19T17:01:56.658Z,83.54
2023-01-19T17:06:56.557Z,84.38
2023-01-19T17:11:56.526Z,85.11
2023-01-19T17:16:56.546Z,85.83
2023-01-19T17:21:56.455Z,86.61
2023-01-19T17:26:56.409Z,87.96
2023-01-19T17:31:56.369Z,88.84
2023-01-19T17:36:56.383Z,89.26
2023-01-19T17:41:56.286Z,89.36
2023-01-19T17:46:56.426Z,89.78
2023-01-19T17:51:56.208Z,89.43
2023-01-19T17:56:56.179Z,89.53
2023-01-19T18:01:56.258Z,89.74
2023-01-19T18:06:56.088Z,90.06
2023-01-19T18:11:56.088Z,89.74
2023-01-19T18:16:56.049Z,89.53
2023-01-19T18:21:56.012Z,89.28
2023-01-19T18:26:55.965Z,88.97
2023-01-19T18:31:55.919Z,88.87
2023-01-19T18:36:55.886Z,88.65
2023-01-19T18:41:55.857Z,88.45
2023-01-19T18:46:55.814Z,88.55
2023-01-19T18:51:55.776Z,88.30
2023-01-19T18:56:55.750Z,88.30
2023-01-19T19:01:55.729Z,88.41
2023-01-19T19:06:55.664Z,88.62
2023-01-19T19:11:55.632Z,88.30
2023-01-19T19:16:55.593Z,88.62
2023-01-19T19:21:55.552Z,88.72
2023-01-19T19:26:55.520Z,88.62
2023-01-19T19:31:55.473Z,89.03
2023-01-19T19:36:55.438Z,90.08
2023-01-19T19:41:55.389Z,91.96
2023-01-19T19:46:55.345Z,93.04
2023-01-19T19:51:55.319Z,93.88
2023-01-19T19:56:55.269Z,93.98
2023-01-19T20:01:55.277Z,94.29
2023-01-19T20:06:55.192Z,94.25
2023-01-19T20:11:55.154Z,94.61
2023-01-19T20:16:55.111Z,94.57
2023-01-19T20:21:55.072Z,94.46
2023-01-19T20:26:55.026Z,94.78
2023-01-19T20:31:55.049Z,94.78
2023-01-19T20:36:54.972Z,94.78
2023-01-19T20:41:54.923Z,95.09
2023-01-19T20:46:54.884Z,94.94
2023-01-19T20:51:54.833Z,94.78
2023-01-19T20:56:54.803Z,94.88
2023-01-19T21:01:54.914Z,94.98
2023-01-19T21:06:54.751Z,95.09
2023-01-19T21:11:57.310Z,94.84
2023-01-19T21:16:54.653Z,95.09
2023-01-19T21:21:54.625Z,95.19
2023-01-19T21:26:54.588Z,95.65
2023-01-19T21:31:54.588Z,95.86
2023-01-19T21:36:54.524Z,95.86
2023-01-19T21:41:54.494Z,95.97
2023-01-19T21:46:54.467Z,95.97
2023-01-19T21:51:54.433Z,96.07
2023-01-19T21:56:54.389Z,95.97
2023-01-19T22:01:54.480Z,95.65
2023-01-19T22:06:54.343Z,95.76
2023-01-19T22:11:54.313Z,95.55
2023-01-19T22:16:54.319Z,95.76
2023-01-19T22:21:54.256Z,96.01
2023-01-19T22:26:54.214Z,96.43
2023-01-19T22:31:54.226Z,96.47
2023-01-19T22:36:54.143Z,96.78
2023-01-19T22:41:54.119Z,97.50
2023-01-19T22:46:54.078Z,97.71
2023-01-19T22:51:54.050Z,98.28
2023-01-19T22:56:54.005Z,98.32
2023-01-19T23:01:54.215Z,98.95
2023-01-19T23:06:53.942Z,98.85
2023-01-19T23:11:53.918Z,99.05
2023-01-19T23:16:53.884Z,98.95
2023-01-19T23:21:53.869Z,99.16
2023-01-19T23:26:53.836Z,99.10
2023-01-19T23:31:53.793Z,99.21
2023-01-19T23:36:53.772Z,99.52
2023-01-19T23:41:53.737Z,99.77
2023-01-19T23:46:53.715Z,99.99
2023-01-19T23:51:53.671Z,99.99
2023-01-19T23:56:53.635Z,99.99
